Time;durP1;ratioP1;P1;durP2;ratioP2;P2;SDS_P1;SDS_P2;PMS_P1;PMS_P2;Temp;Humidity;BMP_temperature;BMP_pressure;BME280_temperature;BME280_humidity;BME280_pressure;Samples;Min_cycle;Max_cycle;Signal;HPM_P1;HPM_P2
2022/06/08 00:02:17;;;;;;;1999.90;999.90;;;;;;;;;;5103417;27;20398;-70
2022/06/08 00:04:52;;;;;;;1999.90;999.90;;;;;;;;;;5106723;27;20781;-68
2022/06/08 00:07:20;;;;;;;1999.90;999.90;;;;;;;;;;5103060;27;20392;-69
2022/06/08 00:09:48;;;;;;;1999.90;999.90;;;;;;;;;;5086982;28;20451;-67
2022/06/08 00:12:18;;;;;;;1999.90;999.90;;;;;;;;;;5105279;27;20441;-70
2022/06/08 00:14:48;;;;;;;1999.90;999.90;;;;;;;;;;5104798;27;20393;-68
2022/06/08 00:17:19;;;;;;;1999.90;999.90;;;;;;;;;;5102325;27;20388;-69
2022/06/08 00:19:47;;;;;;;1999.90;999.90;;;;;;;;;;5104382;27;20503;-69
2022/06/08 00:22:18;;;;;;;1999.90;999.90;;;;;;;;;;5104561;27;20391;-69
2022/06/08 00:24:48;;;;;;;1999.90;999.90;;;;;;;;;;5102942;27;20417;-70
2022/06/08 00:27:18;;;;;;;1999.90;999.90;;;;;;;;;;5099384;27;20890;-69
2022/06/08 00:29:47;;;;;;;1999.90;999.90;;;;;;;;;;5083017;27;20918;-70
2022/06/08 00:32:17;;;;;;;1999.90;999.90;;;;;;;;;;5097518;27;20429;-70
2022/06/08 00:34:49;;;;;;;1999.90;999.90;;;;;;;;;;5079486;28;21221;-69
2022/06/08 00:37:19;;;;;;;1999.90;999.90;;;;;;;;;;5096024;27;20431;-68
2022/06/08 00:39:47;;;;;;;1999.90;999.90;;;;;;;;;;5102850;27;20408;-68
2022/06/08 00:42:18;;;;;;;1999.90;999.90;;;;;;;;;;5098736;27;20877;-70
2022/06/08 00:44:49;;;;;;;1999.90;999.90;;;;;;;;;;5100616;27;20407;-69
2022/06/08 00:47:20;;;;;;;1999.90;999.90;;;;;;;;;;5100233;27;20391;-71
2022/06/08 00:49:51;;;;;;;1999.90;999.90;;;;;;;;;;5083896;28;20446;-70
2022/06/08 00:52:23;;;;;;;1999.90;999.90;;;;;;;;;;5101306;27;20395;-70
2022/06/08 00:55:00;;;;;;;1999.90;999.90;;;;;;;;;;5105065;27;20403;-68
2022/06/08 00:57:34;;;;;;;1999.90;999.90;;;;;;;;;;5102385;27;21207;-70
2022/06/08 01:00:04;;;;;;;1999.90;999.90;;;;;;;;;;5078842;28;20453;-69
2022/06/08 01:02:35;;;;;;;1999.90;999.90;;;;;;;;;;5117837;27;20422;-69
2022/06/08 01:05:21;;;;;;;1999.90;999.90;;;;;;;;;;5094468;27;20422;-70
2022/06/08 01:07:56;;;;;;;1999.90;999.90;;;;;;;;;;5087372;28;20418;-68
2022/06/08 01:10:30;;;;;;;1999.90;999.90;;;;;;;;;;5102833;27;20524;-69
2022/06/08 01:13:04;;;;;;;1999.90;999.90;;;;;;;;;;5106356;27;20387;-69
2022/06/08 01:15:39;;;;;;;1999.90;999.90;;;;;;;;;;5096715;27;20397;-70
2022/06/08 01:18:17;;;;;;;1999.90;999.90;;;;;;;;;;5102506;27;20742;-69
2022/06/08 01:20:56;;;;;;;1999.90;999.90;;;;;;;;;;5083681;27;20522;-68
2022/06/08 01:23:35;;;;;;;1999.90;999.90;;;;;;;;;;5081553;28;20387;-68
2022/06/08 01:26:16;;;;;;;1999.90;999.90;;;;;;;;;;5084368;28;20425;-70
2022/06/08 01:28:52;;;;;;;1999.90;999.90;;;;;;;;;;5097885;27;20399;-67
2022/06/08 01:31:28;;;;;;;1999.90;999.90;;;;;;;;;;5105203;27;20399;-69
2022/06/08 01:34:05;;;;;;;1999.90;999.90;;;;;;;;;;5098236;27;20437;-70
2022/06/08 01:36:48;;;;;;;1999.90;999.90;;;;;;;;;;5102706;27;20426;-70
2022/06/08 01:39:24;;;;;;;1999.90;999.90;;;;;;;;;;5105311;27;20391;-69
2022/06/08 01:42:07;;;;;;;1999.90;999.90;;;;;;;;;;5084643;28;20595;-69
2022/06/08 01:47:34;;;;;;;1999.90;999.90;;;;;;;;;;5109972;27;20424;-69
2022/06/08 01:50:30;;;;;;;1999.90;999.90;;;;;;;;;;5098000;27;20410;-68
2022/06/08 01:53:02;;;;;;;1999.90;999.90;;;;;;;;;;5104061;27;20407;-69
2022/06/08 01:55:38;;;;;;;1999.90;999.90;;;;;;;;;;5085397;28;20418;-69
2022/06/08 01:58:13;;;;;;;1999.90;999.90;;;;;;;;;;5102781;27;20445;-70
2022/06/08 02:00:45;;;;;;;1999.90;999.90;;;;;;;;;;5092069;27;20389;-70
2022/06/08 02:03:20;;;;;;;1999.90;999.90;;;;;;;;;;5081125;27;20922;-70
2022/06/08 02:05:56;;;;;;;1999.90;999.90;;;;;;;;;;5084643;27;20890;-69
2022/06/08 02:08:34;;;;;;;1999.90;999.90;;;;;;;;;;5081485;27;20378;-68
2022/06/08 02:11:15;;;;;;;1999.90;999.90;;;;;;;;;;5107115;27;20406;-68
2022/06/08 02:13:51;;;;;;;1999.90;999.90;;;;;;;;;;5100642;27;20445;-69
2022/06/08 02:16:21;;;;;;;1999.90;999.90;;;;;;;;;;5099726;27;20406;-69
2022/06/08 02:18:56;;;;;;;1999.90;999.90;;;;;;;;;;5082656;28;20408;-68
2022/06/08 02:21:29;;;;;;;1999.90;999.90;;;;;;;;;;5102185;27;20355;-70
2022/06/08 02:24:05;;;;;;;1999.90;999.90;;;;;;;;;;5085648;28;20513;-71
2022/06/08 02:26:38;;;;;;;1999.90;999.90;;;;;;;;;;5079882;28;20449;-70
2022/06/08 02:29:12;;;;;;;1999.90;999.90;;;;;;;;;;5081412;27;20399;-70
2022/06/08 02:31:43;;;;;;;1999.90;999.90;;;;;;;;;;5118212;27;20403;-69
2022/06/08 02:34:31;;;;;;;1999.90;999.90;;;;;;;;;;5102855;27;20407;-70
2022/06/08 02:37:09;;;;;;;1999.90;999.90;;;;;;;;;;5103687;27;20383;-69
2022/06/08 02:39:44;;;;;;;1999.90;999.90;;;;;;;;;;5085903;28;20521;-68
2022/06/08 02:42:17;;;;;;;1999.90;999.90;;;;;;;;;;5103403;27;20387;-68
2022/06/08 02:44:51;;;;;;;1999.90;999.90;;;;;;;;;;5087996;28;21175;-69
2022/06/08 02:47:27;;;;;;;1999.90;999.90;;;;;;;;;;5104251;27;20394;-69
2022/06/08 02:49:58;;;;;;;1999.90;999.90;;;;;;;;;;5102027;27;20391;-70
2022/06/08 02:52:30;;;;;;;1999.90;999.90;;;;;;;;;;5100165;27;20524;-68
2022/06/08 02:55:00;;;;;;;1999.90;999.90;;;;;;;;;;5102560;27;20418;-69
2022/06/08 02:57:37;;;;;;;1999.90;999.90;;;;;;;;;;5087925;28;20399;-68
2022/06/08 03:00:13;;;;;;;1999.90;999.90;;;;;;;;;;5088683;27;20395;-68
2022/06/08 03:02:44;;;;;;;1999.90;999.90;;;;;;;;;;5107476;27;20927;-68
2022/06/08 03:05:19;;;;;;;1999.90;999.90;;;;;;;;;;5107771;27;20406;-69
2022/06/08 03:07:51;;;;;;;1999.90;999.90;;;;;;;;;;5094520;28;20364;-69
2022/06/08 03:10:21;;;;;;;1999.90;999.90;;;;;;;;;;5102152;27;20414;-69
2022/06/08 03:12:56;;;;;;;1999.90;999.90;;;;;;;;;;5091121;28;20407;-69
2022/06/08 03:15:27;;;;;;;1999.90;999.90;;;;;;;;;;5081890;27;20510;-70
2022/06/08 03:17:59;;;;;;;1999.90;999.90;;;;;;;;;;5106049;27;20422;-69
2022/06/08 03:20:28;;;;;;;1999.90;999.90;;;;;;;;;;5103345;27;20392;-68
2022/06/08 03:22:58;;;;;;;1999.90;999.90;;;;;;;;;;5102936;27;20400;-69
2022/06/08 03:25:36;;;;;;;1999.90;999.90;;;;;;;;;;5105467;27;20496;-69
2022/06/08 03:28:12;;;;;;;1999.90;999.90;;;;;;;;;;5105224;27;20383;-69
2022/06/08 03:30:44;;;;;;;1999.90;999.90;;;;;;;;;;5103868;27;21189;-68
2022/06/08 03:33:16;;;;;;;1999.90;999.90;;;;;;;;;;5084121;27;20391;-70
2022/06/08 03:36:14;;;;;;;1999.90;999.90;;;;;;;;;;5103175;27;21462;-68
2022/06/08 03:38:48;;;;;;;1999.90;999.90;;;;;;;;;;5102807;27;20476;-70
2022/06/08 03:41:19;;;;;;;1999.90;999.90;;;;;;;;;;5079586;27;20399;-70
2022/06/08 03:43:50;;;;;;;1999.90;999.90;;;;;;;;;;5100258;27;21592;-69
2022/06/08 03:46:19;;;;;;;1999.90;999.90;;;;;;;;;;5101734;27;20437;-68
2022/06/08 03:48:57;;;;;;;1999.90;999.90;;;;;;;;;;5103173;27;20987;-68
2022/06/08 03:51:26;;;;;;;1999.90;999.90;;;;;;;;;;5086862;27;21467;-69
2022/06/08 03:53:59;;;;;;;1999.90;999.90;;;;;;;;;;5104833;27;20418;-70
2022/06/08 03:56:29;;;;;;;1999.90;999.90;;;;;;;;;;5101464;27;21323;-70
2022/06/08 03:59:00;;;;;;;1999.90;999.90;;;;;;;;;;5104013;27;20393;-70
2022/06/08 04:01:36;;;;;;;1999.90;999.90;;;;;;;;;;5081959;28;20517;-69
2022/06/08 04:04:08;;;;;;;1999.90;999.90;;;;;;;;;;5106228;27;20422;-68
2022/06/08 04:06:39;;;;;;;1999.90;999.90;;;;;;;;;;5104261;27;20413;-68
2022/06/08 04:09:09;;;;;;;1999.90;999.90;;;;;;;;;;5088833;27;21185;-69
2022/06/08 04:11:39;;;;;;;1999.90;999.90;;;;;;;;;;5086346;28;20489;-69
2022/06/08 04:14:10;;;;;;;1999.90;999.90;;;;;;;;;;5102482;27;20407;-69
2022/06/08 04:16:38;;;;;;;1999.90;999.90;;;;;;;;;;5103331;27;20495;-68
2022/06/08 04:19:10;;;;;;;1999.90;999.90;;;;;;;;;;5103016;27;21187;-70
2022/06/08 04:21:39;;;;;;;1999.90;999.90;;;;;;;;;;5104566;27;20434;-71
2022/06/08 04:24:12;;;;;;;1999.90;999.90;;;;;;;;;;5087354;27;20399;-70
2022/06/08 04:26:44;;;;;;;1999.90;999.90;;;;;;;;;;5080046;28;20926;-69
2022/06/08 04:29:24;;;;;;;1999.90;999.90;;;;;;;;;;5090526;27;20458;-70
2022/06/08 04:31:56;;;;;;;1999.90;999.90;;;;;;;;;;5092096;27;20389;-69
2022/06/08 04:34:27;;;;;;;1999.90;999.90;;;;;;;;;;5101919;27;20903;-69
2022/06/08 04:36:56;;;;;;;1999.90;999.90;;;;;;;;;;5103993;27;20435;-72
2022/06/08 04:39:34;;;;;;;1999.90;999.90;;;;;;;;;;5090396;28;20379;-70
2022/06/08 04:42:07;;;;;;;1999.90;999.90;;;;;;;;;;5098362;27;20453;-70
2022/06/08 04:44:41;;;;;;;1999.90;999.90;;;;;;;;;;5097031;27;20674;-68
2022/06/08 04:47:16;;;;;;;1999.90;999.90;;;;;;;;;;5103050;27;20441;-70
2022/06/08 04:49:47;;;;;;;1999.90;999.90;;;;;;;;;;5086037;28;20396;-69
2022/06/08 04:52:23;;;;;;;1999.90;999.90;;;;;;;;;;5102064;27;20489;-69
2022/06/08 04:54:55;;;;;;;1999.90;999.90;;;;;;;;;;5091589;27;20440;-69
2022/06/08 04:57:23;;;;;;;1999.90;999.90;;;;;;;;;;5091186;27;20955;-69
2022/06/08 04:59:58;;;;;;;1999.90;999.90;;;;;;;;;;5094622;27;20411;-69
2022/06/08 05:02:44;;;;;;;1999.90;999.90;;;;;;;;;;5084821;28;21273;-70
2022/06/08 05:05:22;;;;;;;1999.90;999.90;;;;;;;;;;5078841;28;20383;-69
2022/06/08 05:07:55;;;;;;;1999.90;999.90;;;;;;;;;;5100486;27;20482;-70
2022/06/08 05:10:27;;;;;;;1999.90;999.90;;;;;;;;;;5097857;27;20419;-69
2022/06/08 05:12:57;;;;;;;1999.90;999.90;;;;;;;;;;5115085;27;20667;-70
2022/06/08 05:15:32;;;;;;;1999.90;999.90;;;;;;;;;;5085071;27;20539;-70
2022/06/08 05:18:06;;;;;;;1999.90;999.90;;;;;;;;;;5106134;27;20407;-69
2022/06/08 05:20:37;;;;;;;1999.90;999.90;;;;;;;;;;5102362;27;20462;-69
2022/06/08 05:23:17;;;;;;;1999.90;999.90;;;;;;;;;;5098829;27;20395;-70
2022/06/08 05:25:47;;;;;;;1999.90;999.90;;;;;;;;;;5102554;27;20391;-71
2022/06/08 05:28:18;;;;;;;1999.90;999.90;;;;;;;;;;5099243;27;20761;-72
2022/06/08 05:30:58;;;;;;;1999.90;999.90;;;;;;;;;;5087039;28;20383;-71
2022/06/08 05:33:33;;;;;;;1999.90;999.90;;;;;;;;;;5084572;28;20422;-68
2022/06/08 05:36:16;;;;;;;1999.90;999.90;;;;;;;;;;5100525;27;20478;-72
2022/06/08 05:38:51;;;;;;;1999.90;999.90;;;;;;;;;;5099878;27;20414;-72
2022/06/08 05:41:28;;;;;;;1999.90;999.90;;;;;;;;;;5081297;27;21440;-69
2022/06/08 05:43:58;;;;;;;1999.90;999.90;;;;;;;;;;5097058;27;20391;-72
2022/06/08 05:46:29;;;;;;;1999.90;999.90;;;;;;;;;;5100806;27;20540;-72
2022/06/08 05:49:03;;;;;;;1999.90;999.90;;;;;;;;;;5102284;27;20521;-71
2022/06/08 05:51:34;;;;;;;1999.90;999.90;;;;;;;;;;5088885;28;20878;-71
2022/06/08 05:54:02;;;;;;;1999.90;999.90;;;;;;;;;;5089719;28;20505;-73
2022/06/08 05:56:30;;;;;;;1999.90;999.90;;;;;;;;;;5103211;27;20423;-73
2022/06/08 05:59:03;;;;;;;1999.90;999.90;;;;;;;;;;5106591;27;20407;-72
2022/06/08 06:01:41;;;;;;;1999.90;999.90;;;;;;;;;;5100385;27;20387;-71
2022/06/08 06:04:10;;;;;;;1999.90;999.90;;;;;;;;;;5102603;27;20418;-72
2022/06/08 06:06:43;;;;;;;1999.90;999.90;;;;;;;;;;5104685;27;21113;-71
2022/06/08 06:09:12;;;;;;;1999.90;999.90;;;;;;;;;;5093491;27;20418;-72
2022/06/08 06:11:39;;;;;;;1999.90;999.90;;;;;;;;;;5109511;27;20407;-72
2022/06/08 06:14:11;;;;;;;1999.90;999.90;;;;;;;;;;5108379;27;20890;-72
2022/06/08 06:16:47;;;;;;;1999.90;999.90;;;;;;;;;;5094666;28;20482;-71
2022/06/08 06:19:18;;;;;;;1999.90;999.90;;;;;;;;;;5108745;27;20406;-70
2022/06/08 06:22:05;;;;;;;1999.90;999.90;;;;;;;;;;5108915;27;20417;-72
2022/06/08 06:24:43;;;;;;;1999.90;999.90;;;;;;;;;;5095331;28;20459;-71
2022/06/08 06:27:13;;;;;;;1999.90;999.90;;;;;;;;;;5107281;27;20394;-72
2022/06/08 06:30:05;;;;;;;1999.90;999.90;;;;;;;;;;5108575;27;20407;-71
2022/06/08 06:32:55;;;;;;;1999.90;999.90;;;;;;;;;;5113745;27;20383;-71
2022/06/08 06:35:29;;;;;;;1999.90;999.90;;;;;;;;;;5100816;27;20382;-72
2022/06/08 06:38:06;;;;;;;1999.90;999.90;;;;;;;;;;5114335;27;20455;-71
2022/06/08 06:40:37;;;;;;;1999.90;999.90;;;;;;;;;;5103464;27;20404;-71
2022/06/08 06:43:12;;;;;;;1999.90;999.90;;;;;;;;;;5094300;27;20402;-72
2022/06/08 06:45:43;;;;;;;1999.90;999.90;;;;;;;;;;5102581;27;20419;-72
2022/06/08 06:48:28;;;;;;;1999.90;999.90;;;;;;;;;;5094572;27;21674;-72
2022/06/08 06:51:03;;;;;;;1999.90;999.90;;;;;;;;;;5110488;27;20402;-71
2022/06/08 06:53:31;;;;;;;1999.90;999.90;;;;;;;;;;5109189;27;20424;-70
2022/06/08 06:55:59;;;;;;;1999.90;999.90;;;;;;;;;;5109207;27;20437;-71
2022/06/08 06:58:40;;;;;;;1999.90;999.90;;;;;;;;;;5090934;28;20443;-72
2022/06/08 07:01:12;;;;;;;1999.90;999.90;;;;;;;;;;5102835;27;20772;-73
2022/06/08 07:03:42;;;;;;;1999.90;999.90;;;;;;;;;;5091849;28;20391;-72
2022/06/08 07:06:11;;;;;;;1999.90;999.90;;;;;;;;;;5106240;27;20866;-71
2022/06/08 07:08:41;;;;;;;1999.90;999.90;;;;;;;;;;5109290;27;20457;-71
2022/06/08 07:14:00;;;;;;;1999.90;999.90;;;;;;;;;;5100647;27;20391;-72
2022/06/08 07:16:28;;;;;;;1999.90;999.90;;;;;;;;;;5100816;27;20390;-71
2022/06/08 07:18:58;;;;;;;1999.90;999.90;;;;;;;;;;5104481;27;20391;-71
2022/06/08 07:21:28;;;;;;;1999.90;999.90;;;;;;;;;;5098846;27;20455;-71
2022/06/08 07:23:58;;;;;;;1999.90;999.90;;;;;;;;;;5111086;27;20415;-71
2022/06/08 07:26:28;;;;;;;1999.90;999.90;;;;;;;;;;5103144;27;20426;-71
2022/06/08 07:28:58;;;;;;;1999.90;999.90;;;;;;;;;;5105840;27;20507;-71
2022/06/08 07:31:30;;;;;;;1999.90;999.90;;;;;;;;;;5106851;27;20441;-71
2022/06/08 07:34:00;;;;;;;1999.90;999.90;;;;;;;;;;5109134;27;20393;-71
2022/06/08 07:36:28;;;;;;;1999.90;999.90;;;;;;;;;;5106886;27;20999;-72
2022/06/08 07:38:56;;;;;;;1999.90;999.90;;;;;;;;;;5110032;27;20390;-71
2022/06/08 07:41:24;;;;;;;1999.90;999.90;;;;;;;;;;5106159;27;20910;-72
2022/06/08 07:43:53;;;;;;;1999.90;999.90;;;;;;;;;;5110093;27;20391;-71
2022/06/08 07:46:22;;;;;;;1999.90;999.90;;;;;;;;;;5105051;27;20401;-72
2022/06/08 07:51:36;;;;;;;1999.90;999.90;;;;;;;;;;5107776;27;20395;-71
2022/06/08 07:54:05;;;;;;;1999.90;999.90;;;;;;;;;;5109374;27;20399;-71
2022/06/08 07:56:36;;;;;;;1999.90;999.90;;;;;;;;;;5105170;27;20391;-72
2022/06/08 07:59:06;;;;;;;1999.90;999.90;;;;;;;;;;5106312;27;20478;-71
2022/06/08 08:01:34;;;;;;;1999.90;999.90;;;;;;;;;;5109475;27;20409;-72
2022/06/08 08:04:03;;;;;;;1999.90;999.90;;;;;;;;;;5115316;27;20718;-70
2022/06/08 08:06:33;;;;;;;1999.90;999.90;;;;;;;;;;5111527;27;20411;-72
2022/06/08 08:09:03;;;;;;;1999.90;999.90;;;;;;;;;;5116882;27;20406;-72
2022/06/08 08:11:31;;;;;;;1999.90;999.90;;;;;;;;;;5108943;27;20418;-71
2022/06/08 08:13:59;;;;;;;1999.90;999.90;;;;;;;;;;5112161;27;20422;-71
2022/06/08 08:16:28;;;;;;;1999.90;999.90;;;;;;;;;;5114686;27;20389;-72
2022/06/08 08:18:57;;;;;;;1999.90;999.90;;;;;;;;;;5106338;27;20392;-72
2022/06/08 08:21:25;;;;;;;1999.90;999.90;;;;;;;;;;5114293;27;20970;-71
2022/06/08 08:23:53;;;;;;;1999.90;999.90;;;;;;;;;;5109512;27;20421;-71
2022/06/08 08:26:22;;;;;;;1999.90;999.90;;;;;;;;;;5110400;27;20400;-71
2022/06/08 08:28:50;;;;;;;1999.90;999.90;;;;;;;;;;5108383;27;20861;-70
2022/06/08 08:31:19;;;;;;;1999.90;999.90;;;;;;;;;;5127809;27;20423;-72
2022/06/08 08:33:47;;;;;;;1999.90;999.90;;;;;;;;;;5110082;27;20417;-72
2022/06/08 08:36:17;;;;;;;1999.90;999.90;;;;;;;;;;5117953;27;20418;-73
2022/06/08 08:38:46;;;;;;;1999.90;999.90;;;;;;;;;;5107680;27;20445;-73
2022/06/08 08:44:01;;;;;;;1999.90;999.90;;;;;;;;;;5107052;27;20396;-74
2022/06/08 08:46:37;;;;;;;1999.90;999.90;;;;;;;;;;5105419;27;20406;-72
2022/06/08 08:49:13;;;;;;;1999.90;999.90;;;;;;;;;;5109483;27;20438;-73
2022/06/08 08:51:42;;;;;;;1999.90;999.90;;;;;;;;;;5108093;27;20417;-73
2022/06/08 08:54:22;;;;;;;1999.90;999.90;;;;;;;;;;5111170;27;20403;-73
2022/06/08 08:56:51;;;;;;;1999.90;999.90;;;;;;;;;;5108912;27;20384;-71
2022/06/08 08:59:24;;;;;;;1999.90;999.90;;;;;;;;;;5110998;27;20395;-71
2022/06/08 09:01:55;;;;;;;1999.90;999.90;;;;;;;;;;5105334;27;20403;-72
2022/06/08 09:04:28;;;;;;;1999.90;999.90;;;;;;;;;;5110760;27;20399;-72
2022/06/08 09:06:56;;;;;;;1999.90;999.90;;;;;;;;;;5108865;27;20444;-72
2022/06/08 09:09:29;;;;;;;1999.90;999.90;;;;;;;;;;5110638;27;20434;-72
2022/06/08 09:12:04;;;;;;;1999.90;999.90;;;;;;;;;;5099804;27;32299;-73
2022/06/08 09:14:58;;;;;;;1999.90;999.90;;;;;;;;;;5103522;27;20585;-72
2022/06/08 09:17:32;;;;;;;1999.90;999.90;;;;;;;;;;5099793;27;20500;-71
2022/06/08 09:20:03;;;;;;;1999.90;999.90;;;;;;;;;;5116246;27;20401;-71
2022/06/08 09:22:33;;;;;;;1999.90;999.90;;;;;;;;;;5112303;27;20411;-71
2022/06/08 09:25:03;;;;;;;1999.90;999.90;;;;;;;;;;5107050;27;20387;-71
2022/06/08 09:27:33;;;;;;;1999.90;999.90;;;;;;;;;;5109723;27;20740;-71
2022/06/08 09:30:14;;;;;;;1999.90;999.90;;;;;;;;;;5112116;27;20395;-71
2022/06/08 09:32:45;;;;;;;1999.90;999.90;;;;;;;;;;5102068;27;20896;-72
2022/06/08 09:35:18;;;;;;;1999.90;999.90;;;;;;;;;;5111216;27;20395;-71
2022/06/08 09:37:47;;;;;;;1999.90;999.90;;;;;;;;;;5092734;27;20453;-71
2022/06/08 09:43:05;;;;;;;1999.90;999.90;;;;;;;;;;5105110;27;20410;-72
2022/06/08 09:45:43;;;;;;;1999.90;999.90;;;;;;;;;;5106862;27;20423;-71
2022/06/08 09:51:29;;;;;;;1999.90;999.90;;;;;;;;;;5107801;27;20396;-70
2022/06/08 09:54:05;;;;;;;1999.90;999.90;;;;;;;;;;5130971;27;20399;-71
2022/06/08 09:56:42;;;;;;;1999.90;999.90;;;;;;;;;;5115461;27;20387;-72
2022/06/08 09:59:16;;;;;;;1999.90;999.90;;;;;;;;;;5113606;27;20877;-72
2022/06/08 10:01:49;;;;;;;1999.90;999.90;;;;;;;;;;5106393;27;20534;-70
2022/06/08 10:04:26;;;;;;;1999.90;999.90;;;;;;;;;;5107372;27;20514;-69
2022/06/08 10:07:13;;;;;;;1999.90;999.90;;;;;;;;;;5109245;27;20405;-68
2022/06/08 10:09:49;;;;;;;1999.90;999.90;;;;;;;;;;5111740;27;20391;-69
2022/06/08 10:12:26;;;;;;;1999.90;999.90;;;;;;;;;;5115297;27;20399;-69
2022/06/08 10:14:56;;;;;;;1999.90;999.90;;;;;;;;;;5115212;27;20415;-69
2022/06/08 10:17:39;;;;;;;1999.90;999.90;;;;;;;;;;5095420;27;20410;-70
2022/06/08 10:20:11;;;;;;;1999.90;999.90;;;;;;;;;;5110115;27;20403;-71
2022/06/08 10:22:45;;;;;;;1999.90;999.90;;;;;;;;;;5109291;27;20387;-69
2022/06/08 10:25:22;;;;;;;1999.90;999.90;;;;;;;;;;5114287;27;20419;-69
2022/06/08 10:27:55;;;;;;;1999.90;999.90;;;;;;;;;;5109835;27;20389;-70
2022/06/08 10:30:28;;;;;;;1999.90;999.90;;;;;;;;;;5107743;27;20445;-70
2022/06/08 10:33:01;;;;;;;1999.90;999.90;;;;;;;;;;5103745;27;20860;-71
2022/06/08 10:35:35;;;;;;;1999.90;999.90;;;;;;;;;;5107094;27;20513;-70
2022/06/08 10:38:04;;;;;;;1999.90;999.90;;;;;;;;;;5111485;27;20395;-69
2022/06/08 10:40:45;;;;;;;1999.90;999.90;;;;;;;;;;5106136;27;20519;-70
2022/06/08 10:43:20;;;;;;;1999.90;999.90;;;;;;;;;;5107223;27;20441;-70
2022/06/08 10:46:07;;;;;;;1999.90;999.90;;;;;;;;;;5103882;27;20457;-69
2022/06/08 10:48:51;;;;;;;1999.90;999.90;;;;;;;;;;5102658;27;20413;-69
2022/06/08 10:51:32;;;;;;;1999.90;999.90;;;;;;;;;;5101159;27;20872;-68
2022/06/08 10:57:25;;;;;;;1999.90;999.90;;;;;;;;;;5107634;27;20403;-69
2022/06/08 11:00:18;;;;;;;1999.90;999.90;;;;;;;;;;5109663;27;20431;-71
2022/06/08 11:02:49;;;;;;;1999.90;999.90;;;;;;;;;;5108764;27;20514;-70
2022/06/08 11:05:21;;;;;;;1999.90;999.90;;;;;;;;;;5104299;27;20435;-69
2022/06/08 11:08:08;;;;;;;1999.90;999.90;;;;;;;;;;5107780;27;20395;-71
2022/06/08 11:11:00;;;;;;;1999.90;999.90;;;;;;;;;;5122003;27;20487;-70
2022/06/08 11:13:36;;;;;;;1999.90;999.90;;;;;;;;;;5102444;27;20402;-71
2022/06/08 11:16:11;;;;;;;1999.90;999.90;;;;;;;;;;5080482;27;20418;-70
2022/06/08 11:18:42;;;;;;;1999.90;999.90;;;;;;;;;;5101175;27;20401;-69
2022/06/08 11:21:24;;;;;;;1999.90;999.90;;;;;;;;;;5104204;27;20395;-70
2022/06/08 11:23:59;;;;;;;1999.90;999.90;;;;;;;;;;5112943;27;21489;-69
2022/06/08 11:26:46;;;;;;;1999.90;999.90;;;;;;;;;;5110041;27;20403;-70
2022/06/08 11:29:41;;;;;;;1999.90;999.90;;;;;;;;;;5110021;27;20398;-71
2022/06/08 11:32:22;;;;;;;1999.90;999.90;;;;;;;;;;5082490;27;20466;-71
2022/06/08 11:34:59;;;;;;;1999.90;999.90;;;;;;;;;;5106065;27;20397;-70
2022/06/08 11:37:36;;;;;;;1999.90;999.90;;;;;;;;;;5103239;27;21146;-69
2022/06/08 11:40:11;;;;;;;1999.90;999.90;;;;;;;;;;5108952;27;20399;-70
2022/06/08 11:42:46;;;;;;;1999.90;999.90;;;;;;;;;;5107900;27;20419;-71
2022/06/08 11:45:15;;;;;;;1999.90;999.90;;;;;;;;;;5111707;27;20403;-70
2022/06/08 11:47:51;;;;;;;1999.90;999.90;;;;;;;;;;5106508;27;20422;-70
2022/06/08 11:50:21;;;;;;;1999.90;999.90;;;;;;;;;;5103939;27;20548;-70
2022/06/08 11:53:01;;;;;;;1999.90;999.90;;;;;;;;;;5095323;28;20457;-69
2022/06/08 11:55:30;;;;;;;1999.90;999.90;;;;;;;;;;5113142;27;20490;-69
2022/06/08 11:58:00;;;;;;;1999.90;999.90;;;;;;;;;;5109241;27;20396;-69
2022/06/08 12:00:34;;;;;;;1999.90;999.90;;;;;;;;;;5107284;27;20468;-67
2022/06/08 12:03:06;;;;;;;1999.90;999.90;;;;;;;;;;5110721;27;20367;-69
2022/06/08 12:05:36;;;;;;;1999.90;999.90;;;;;;;;;;5106688;27;20383;-71
2022/06/08 12:08:13;;;;;;;1999.90;999.90;;;;;;;;;;5110717;27;20485;-71
2022/06/08 12:11:01;;;;;;;1999.90;999.90;;;;;;;;;;5107724;27;20418;-70
2022/06/08 12:13:32;;;;;;;1999.90;999.90;;;;;;;;;;5110332;27;20494;-71
2022/06/08 12:16:06;;;;;;;1999.90;999.90;;;;;;;;;;5106994;27;20418;-71
2022/06/08 12:18:42;;;;;;;1999.90;999.90;;;;;;;;;;5107180;27;20386;-71
2022/06/08 12:21:38;;;;;;;1999.90;999.90;;;;;;;;;;5107617;27;20380;-69
2022/06/08 12:24:29;;;;;;;1999.90;999.90;;;;;;;;;;5106830;27;20419;-70
2022/06/08 12:26:59;;;;;;;1999.90;999.90;;;;;;;;;;5108300;27;20367;-70
2022/06/08 12:29:29;;;;;;;1999.90;999.90;;;;;;;;;;5109428;27;20395;-71
2022/06/08 12:32:05;;;;;;;1999.90;999.90;;;;;;;;;;5108278;27;20403;-71
2022/06/08 12:34:38;;;;;;;1999.90;999.90;;;;;;;;;;5107729;27;20845;-71
2022/06/08 12:37:24;;;;;;;1999.90;999.90;;;;;;;;;;5109407;27;20878;-71
2022/06/08 12:39:55;;;;;;;1999.90;999.90;;;;;;;;;;5105571;27;20427;-70
2022/06/08 12:42:33;;;;;;;1999.90;999.90;;;;;;;;;;5105788;27;20861;-70
2022/06/08 12:45:05;;;;;;;1999.90;999.90;;;;;;;;;;5109153;27;20380;-69
2022/06/08 12:47:42;;;;;;;1999.90;999.90;;;;;;;;;;5099442;27;20495;-69
2022/06/08 12:50:17;;;;;;;1999.90;999.90;;;;;;;;;;5105521;27;20388;-69
2022/06/08 12:52:46;;;;;;;1999.90;999.90;;;;;;;;;;5107719;27;20405;-69
2022/06/08 12:55:18;;;;;;;1999.90;999.90;;;;;;;;;;5108678;27;21217;-69
2022/06/08 12:57:48;;;;;;;1999.90;999.90;;;;;;;;;;5108479;27;20400;-70
2022/06/08 13:00:19;;;;;;;1999.90;999.90;;;;;;;;;;5088996;28;20926;-69
2022/06/08 13:02:50;;;;;;;1999.90;999.90;;;;;;;;;;5104266;27;20403;-70
2022/06/08 13:05:22;;;;;;;1999.90;999.90;;;;;;;;;;5107718;27;20399;-69
2022/06/08 13:07:54;;;;;;;1999.90;999.90;;;;;;;;;;5107426;27;20387;-70
2022/06/08 13:10:25;;;;;;;1999.90;999.90;;;;;;;;;;5109198;27;20905;-69
2022/06/08 13:13:03;;;;;;;1999.90;999.90;;;;;;;;;;5110797;27;20464;-69
2022/06/08 13:15:36;;;;;;;1999.90;999.90;;;;;;;;;;5106855;27;20856;-69
2022/06/08 13:18:05;;;;;;;1999.90;999.90;;;;;;;;;;5104437;27;20419;-68
2022/06/08 13:20:38;;;;;;;1999.90;999.90;;;;;;;;;;5099605;27;21164;-71
2022/06/08 13:23:07;;;;;;;1999.90;999.90;;;;;;;;;;5099331;27;20494;-72
2022/06/08 13:25:37;;;;;;;1999.90;999.90;;;;;;;;;;5089466;28;20955;-70
2022/06/08 13:28:10;;;;;;;1999.90;999.90;;;;;;;;;;5107066;27;20941;-70
2022/06/08 13:30:39;;;;;;;1999.90;999.90;;;;;;;;;;5105885;27;21226;-70
2022/06/08 13:33:56;;;;;;;1999.90;999.90;;;;;;;;;;5108462;27;21240;-71
2022/06/08 13:36:03;;;;;;;1999.90;999.90;;;;;;;;;;5107762;27;20482;-70
2022/06/08 13:38:34;;;;;;;1999.90;999.90;;;;;;;;;;5107113;27;20399;-70
2022/06/08 13:41:05;;;;;;;1999.90;999.90;;;;;;;;;;5101152;27;20747;-70
2022/06/08 13:43:36;;;;;;;1999.90;999.90;;;;;;;;;;5105404;27;20422;-70
2022/06/08 13:46:08;;;;;;;1999.90;999.90;;;;;;;;;;5106879;27;20962;-70
2022/06/08 13:48:38;;;;;;;1999.90;999.90;;;;;;;;;;5104457;27;20480;-70
2022/06/08 13:51:07;;;;;;;1999.90;999.90;;;;;;;;;;5103143;27;20388;-70
2022/06/08 13:53:38;;;;;;;1999.90;999.90;;;;;;;;;;5107088;27;20505;-70
2022/06/08 13:56:06;;;;;;;1999.90;999.90;;;;;;;;;;5102860;27;20413;-71
2022/06/08 13:58:34;;;;;;;1999.90;999.90;;;;;;;;;;5107230;27;20401;-70
2022/06/08 14:01:12;;;;;;;1999.90;999.90;;;;;;;;;;5106664;27;21086;-70
2022/06/08 14:03:40;;;;;;;1999.90;999.90;;;;;;;;;;5103362;27;20488;-70
2022/06/08 14:14:52;;;;;;;1999.90;999.90;;;;;;;;;;5104525;27;20375;-69
2022/06/08 14:17:24;;;;;;;1999.90;999.90;;;;;;;;;;5105446;27;20388;-71
2022/06/08 14:19:54;;;;;;;1999.90;999.90;;;;;;;;;;5107435;27;20394;-70
2022/06/08 14:22:26;;;;;;;1999.90;999.90;;;;;;;;;;5099637;27;20395;-67
2022/06/08 14:24:59;;;;;;;1999.90;999.90;;;;;;;;;;5107773;27;20401;-70
2022/06/08 14:27:27;;;;;;;1999.90;999.90;;;;;;;;;;5105102;27;20387;-69
2022/06/08 14:29:58;;;;;;;1999.90;999.90;;;;;;;;;;5111100;27;20403;-71
2022/06/08 14:32:33;;;;;;;1999.90;999.90;;;;;;;;;;5108505;27;20402;-69
2022/06/08 14:35:07;;;;;;;1999.90;999.90;;;;;;;;;;5109855;27;20422;-68
2022/06/08 14:37:58;;;;;;;1999.90;999.90;;;;;;;;;;5090232;28;20395;-69
2022/06/08 14:40:32;;;;;;;1999.90;999.90;;;;;;;;;;5104357;27;20399;-69
2022/06/08 14:42:59;;;;;;;1999.90;999.90;;;;;;;;;;5106933;27;20480;-69
2022/06/08 14:45:28;;;;;;;1999.90;999.90;;;;;;;;;;5103599;27;20417;-70
2022/06/08 14:47:56;;;;;;;1999.90;999.90;;;;;;;;;;5107788;27;20383;-70